Главная страница
METAR-TAF:

METAR-TAF

Аэропорты :

Ростов-на-Дону, Россия

широта: 47-16N, долгота: 039-49E, высота над уровнем моря: 77 м

Текущие метеонаблюдения

Эта сводка был подготовлена 33 минут назад, в 06:00 UTC
Ветер 14 Узел от восточный
Температура 27°C
Влажность 32%
Давление 1015 hPa
Видимость 10 км и более
Нет облачности ниже 1500 м, и нет кучево-дождевой облачности

METAR: URRR 210600Z 09007MPS CAVOK 27/09 Q1015 WS R04 R04/CLRD70 NOSIG RMK QFE755/1006

Время: 09:33 (06:33 UTC)

Прогноз

Эта сводка был подготовлена 1 час и 36 минут назад, в 04:57 UTC
Прогноз действительный с 21-го 06 UTC до 22-го 06 UTC
Ветер 16 Узел от восточный с порывами до 27 Узел
Видимость 10 км и более
Отдельные облака на высоте 3000 фута, Кучево-дождевые.
временами
С 21-го 06 UTC до 21-го 18 UTC
Ветер 21 Узел от восточный с порывами до 33 Узел

TAF: URRR 210457Z 2106/2206 08008G14MPS 9999 SCT030CB TEMPO 2106/2118 10011G17MPS

Метеонаблюдения и прогнозы для более 4000 аэропортов (сводки METAR и TAF).

Имеющиеся станции представлены на карте желтыми и красными точками.

Чтобы увидеть название станции, наведите на нее мышь.

Затем щелкните, чтобы увидеть метеонаблюдения и метеопрогнозы.

Управление картой: чтобы увеличить масштаб, щелкните зеленые кнопки с черным крестиком; чтобы уменьшить масштаб, щелкните зеленую кнопку с тире; для просмотра соседних карт щелкайте зеленые стрелки.


METAR-TAF: